QFA407 YMML-YSSY
Flight info
| Callsign | QFA407 |
|---|---|
| Flight time | N/A |
| Altitude | 37000 |
| Route | ML H129 DOSEL Y59 RIVET |
| Aircraft | A346/H-SDE2E3FGHIJ3J4J5M1RWXY/LB1D1 |
Departure
| Time | 2026-05-05 10:01 |
|---|---|
| Airport | Melbourne Airport (YMML) |
Arrival
| Time | N/A |
|---|---|
| Airport | Sydney Kingsford Smith International Airport (YSSY) |
| Time | Latitude | Longitude | Altitude | Speed | Heading |
|---|---|---|---|---|---|
| 2026-05-05 09:22 | -37.66610 | 144.84889 | 407 ft | 0 kts | 168° |
| 2026-05-05 09:48 | -37.66600 | 144.84887 | 408 ft | 4 kts | 169° |
| 2026-05-05 09:48 | -37.66575 | 144.84880 | 403 ft | 4 kts | 156° |
| 2026-05-05 09:48 | -37.66567 | 144.84874 | 404 ft | 3 kts | 118° |
| 2026-05-05 09:49 | -37.66558 | 144.84849 | 404 ft | 4 kts | 111° |
| 2026-05-05 09:49 | -37.66548 | 144.84818 | 404 ft | 4 kts | 117° |
| 2026-05-05 09:49 | -37.66536 | 144.84797 | 404 ft | 4 kts | 150° |
| 2026-05-05 09:49 | -37.66535 | 144.84796 | 404 ft | 4 kts | 159° |
| 2026-05-05 09:50 | -37.66554 | 144.84814 | 404 ft | 4 kts | 134° |
| 2026-05-05 09:50 | -37.66543 | 144.84804 | 404 ft | 4 kts | 168° |
| 2026-05-05 09:50 | -37.66545 | 144.84803 | 404 ft | 0 kts | 179° |
| 2026-05-05 09:53 | -37.66546 | 144.84803 | 406 ft | 1 kts | 179° |
| 2026-05-05 09:53 | -37.66574 | 144.84803 | 410 ft | 6 kts | 185° |
| 2026-05-05 09:53 | -37.66626 | 144.84765 | 409 ft | 11 kts | 234° |
| 2026-05-05 09:53 | -37.66649 | 144.84648 | 404 ft | 16 kts | 261° |
| 2026-05-05 09:54 | -37.66656 | 144.84586 | 408 ft | 6 kts | 261° |
| 2026-05-05 09:54 | -37.66665 | 144.84512 | 407 ft | 10 kts | 261° |
| 2026-05-05 09:54 | -37.66678 | 144.84401 | 405 ft | 15 kts | 261° |
| 2026-05-05 09:54 | -37.66690 | 144.84302 | 401 ft | 0 kts | 261° |
| 2026-05-05 09:55 | -37.66692 | 144.84286 | 401 ft | 4 kts | 261° |
| 2026-05-05 09:55 | -37.66698 | 144.84236 | 404 ft | 7 kts | 259° |
| 2026-05-05 09:55 | -37.66743 | 144.84188 | 400 ft | 12 kts | 187° |
| 2026-05-05 09:55 | -37.66849 | 144.84203 | 398 ft | 18 kts | 171° |
| 2026-05-05 09:56 | -37.66984 | 144.84229 | 393 ft | 23 kts | 171° |
| 2026-05-05 09:56 | -37.67161 | 144.84262 | 391 ft | 25 kts | 172° |
| 2026-05-05 09:56 | -37.67316 | 144.84290 | 388 ft | 23 kts | 172° |
| 2026-05-05 09:56 | -37.67490 | 144.84323 | 384 ft | 26 kts | 172° |
| 2026-05-05 09:57 | -37.67607 | 144.84345 | 381 ft | 19 kts | 171° |
| 2026-05-05 09:57 | -37.67709 | 144.84364 | 378 ft | 0 kts | 171° |
| 2026-05-05 09:57 | -37.67724 | 144.84367 | 378 ft | 5 kts | 171° |
| 2026-05-05 09:57 | -37.67775 | 144.84375 | 376 ft | 10 kts | 181° |
| 2026-05-05 09:58 | -37.67846 | 144.84310 | 372 ft | 17 kts | 250° |
| 2026-05-05 09:58 | -37.67868 | 144.84161 | 372 ft | 0 kts | 261° |
| 2026-05-05 09:59 | -37.67869 | 144.84151 | 372 ft | 3 kts | 261° |
| 2026-05-05 09:59 | -37.67875 | 144.84105 | 367 ft | 8 kts | 261° |
| 2026-05-05 09:59 | -37.67877 | 144.84017 | 368 ft | 12 kts | 283° |
| 2026-05-05 09:59 | -37.67811 | 144.83956 | 367 ft | 7 kts | 350° |
| 2026-05-05 10:00 | -37.67809 | 144.83955 | 367 ft | 1 kts | 350° |
| 2026-05-05 10:00 | -37.67667 | 144.83928 | 371 ft | 53 kts | 352° |
| 2026-05-05 10:00 | -37.67076 | 144.83818 | 392 ft | 116 kts | 351° |
| 2026-05-05 10:00 | -37.66085 | 144.83633 | 421 ft | 168 kts | 352° |
| 2026-05-05 10:01 | -37.64828 | 144.83410 | 853 ft | 182 kts | 351° |
| 2026-05-05 10:01 | -37.63576 | 144.83177 | 1662 ft | 180 kts | 350° |
| 2026-05-05 10:01 | -37.62327 | 144.82936 | 2321 ft | 185 kts | 349° |
| 2026-05-05 10:01 | -37.60995 | 144.82674 | 2802 ft | 201 kts | 349° |
| 2026-05-05 10:02 | -37.59551 | 144.82466 | 3251 ft | 220 kts | 0° |
| 2026-05-05 10:02 | -37.57963 | 144.82921 | 3683 ft | 243 kts | 22° |
| 2026-05-05 10:02 | -37.56375 | 144.83861 | 4235 ft | 261 kts | 26° |
| 2026-05-05 10:02 | -37.54710 | 144.84921 | 4955 ft | 273 kts | 26° |
| 2026-05-05 10:03 | -37.53087 | 144.85948 | 5829 ft | 276 kts | 26° |
| 2026-05-05 10:03 | -37.51376 | 144.87012 | 6750 ft | 280 kts | 25° |
| 2026-05-05 10:03 | -37.49604 | 144.88098 | 7598 ft | 286 kts | 25° |
| 2026-05-05 10:03 | -37.47861 | 144.89157 | 8473 ft | 291 kts | 25° |
| 2026-05-05 10:04 | -37.46067 | 144.90245 | 9363 ft | 296 kts | 25° |
| 2026-05-05 10:04 | -37.44255 | 144.91530 | 10271 ft | 303 kts | 36° |
| 2026-05-05 10:04 | -37.42676 | 144.93355 | 10925 ft | 317 kts | 50° |
| 2026-05-05 10:04 | -37.41310 | 144.95643 | 11428 ft | 335 kts | 55° |
| 2026-05-05 10:05 | -37.39944 | 144.98121 | 11920 ft | 354 kts | 56° |
| 2026-05-05 10:05 | -37.38481 | 145.00789 | 12413 ft | 372 kts | 56° |
| 2026-05-05 10:05 | -37.36981 | 145.03495 | 13141 ft | 381 kts | 55° |
| 2026-05-05 10:05 | -37.35429 | 145.06271 | 14103 ft | 384 kts | 55° |
| 2026-05-05 10:06 | -37.33870 | 145.09040 | 14933 ft | 388 kts | 54° |
| 2026-05-05 10:06 | -37.32297 | 145.11825 | 15780 ft | 392 kts | 54° |
| 2026-05-05 10:06 | -37.30700 | 145.14646 | 16626 ft | 395 kts | 54° |
| 2026-05-05 10:06 | -37.29096 | 145.17473 | 17472 ft | 399 kts | 54° |
| 2026-05-05 10:07 | -37.27476 | 145.20327 | 18308 ft | 403 kts | 54° |
| 2026-05-05 10:07 | -37.25838 | 145.23208 | 19053 ft | 407 kts | 54° |
| 2026-05-05 10:07 | -37.24204 | 145.26075 | 19743 ft | 411 kts | 54° |
| 2026-05-05 10:07 | -37.22507 | 145.29053 | 20445 ft | 415 kts | 54° |
| 2026-05-05 10:08 | -37.20843 | 145.31973 | 21134 ft | 419 kts | 54° |
| 2026-05-05 10:08 | -37.19134 | 145.34968 | 21819 ft | 424 kts | 54° |
| 2026-05-05 10:08 | -37.17408 | 145.37989 | 22510 ft | 428 kts | 54° |
| 2026-05-05 10:08 | -37.15662 | 145.41046 | 23188 ft | 432 kts | 54° |
| 2026-05-05 10:09 | -37.13896 | 145.44131 | 23850 ft | 437 kts | 54° |
| 2026-05-05 10:09 | -37.12116 | 145.47239 | 24410 ft | 441 kts | 54° |
| 2026-05-05 10:09 | -37.10315 | 145.50381 | 24978 ft | 444 kts | 54° |
| 2026-05-05 10:09 | -37.08505 | 145.53535 | 25563 ft | 448 kts | 54° |
| 2026-05-05 10:10 | -37.06676 | 145.56719 | 26137 ft | 451 kts | 54° |
| 2026-05-05 10:10 | -37.04833 | 145.59923 | 26702 ft | 454 kts | 54° |
| 2026-05-05 10:10 | -37.02974 | 145.63152 | 27275 ft | 458 kts | 54° |
| 2026-05-05 10:10 | -37.01103 | 145.66396 | 27829 ft | 461 kts | 54° |
| 2026-05-05 10:11 | -36.99217 | 145.69665 | 28379 ft | 465 kts | 54° |
| 2026-05-05 10:11 | -36.97341 | 145.72914 | 28891 ft | 468 kts | 54° |
| 2026-05-05 10:11 | -36.95419 | 145.76237 | 29432 ft | 472 kts | 54° |
| 2026-05-05 10:11 | -36.93487 | 145.79577 | 29975 ft | 475 kts | 54° |
| 2026-05-05 10:12 | -36.91551 | 145.82918 | 30621 ft | 474 kts | 54° |
| 2026-05-05 10:12 | -36.89622 | 145.86248 | 31297 ft | 471 kts | 54° |
| 2026-05-05 10:12 | -36.87701 | 145.89560 | 31945 ft | 469 kts | 53° |
| 2026-05-05 10:12 | -36.85779 | 145.92870 | 32556 ft | 469 kts | 53° |
| 2026-05-05 10:13 | -36.83854 | 145.96181 | 33145 ft | 468 kts | 53° |
| 2026-05-05 10:13 | -36.81938 | 145.99472 | 33724 ft | 467 kts | 53° |
| 2026-05-05 10:13 | -36.80002 | 146.02795 | 34303 ft | 467 kts | 53° |
| 2026-05-05 10:13 | -36.78087 | 146.06079 | 34774 ft | 466 kts | 53° |
| 2026-05-05 10:14 | -36.76175 | 146.09355 | 35212 ft | 467 kts | 52° |
| 2026-05-05 10:14 | -36.74261 | 146.12631 | 35636 ft | 467 kts | 52° |
| 2026-05-05 10:14 | -36.72992 | 146.14800 | 35869 ft | 468 kts | 52° |
| 2026-05-05 10:14 | -36.70402 | 146.19221 | 36296 ft | 472 kts | 52° |
| 2026-05-05 10:15 | -36.68486 | 146.22489 | 36598 ft | 474 kts | 52° |
| 2026-05-05 10:15 | -36.66533 | 146.25816 | 36897 ft | 476 kts | 51° |
| 2026-05-05 10:15 | -36.64572 | 146.29154 | 37195 ft | 478 kts | 51° |
| 2026-05-05 10:15 | -36.63240 | 146.31419 | 37239 ft | 480 kts | 51° |
| 2026-05-05 10:16 | -36.58643 | 146.39225 | 37248 ft | 481 kts | 51° |
| 2026-05-05 10:16 | -36.54680 | 146.45940 | 37248 ft | 481 kts | 51° |
| 2026-05-05 10:17 | -36.51382 | 146.51521 | 37248 ft | 481 kts | 51° |
| 2026-05-05 10:17 | -36.47408 | 146.58235 | 37248 ft | 481 kts | 51° |
| 2026-05-05 10:18 | -36.43430 | 146.64940 | 37256 ft | 481 kts | 51° |
| 2026-05-05 10:18 | -36.39447 | 146.71641 | 37252 ft | 481 kts | 51° |
| 2026-05-05 10:19 | -36.35464 | 146.78328 | 37255 ft | 481 kts | 51° |
| 2026-05-05 10:19 | -36.31478 | 146.85007 | 37265 ft | 481 kts | 51° |
| 2026-05-05 10:20 | -36.27489 | 146.91678 | 37252 ft | 481 kts | 51° |
| 2026-05-05 10:20 | -36.23515 | 146.98310 | 37260 ft | 481 kts | 50° |
| 2026-05-05 10:21 | -36.19520 | 147.04963 | 37266 ft | 481 kts | 50° |
| 2026-05-05 10:21 | -36.15517 | 147.11620 | 37261 ft | 481 kts | 50° |
| 2026-05-05 10:22 | -36.11513 | 147.18269 | 37258 ft | 481 kts | 50° |
| 2026-05-05 10:22 | -36.07499 | 147.24919 | 37261 ft | 481 kts | 50° |
| 2026-05-05 10:23 | -36.03480 | 147.31561 | 37260 ft | 482 kts | 50° |
| 2026-05-05 10:23 | -35.99484 | 147.38153 | 37262 ft | 482 kts | 50° |
| 2026-05-05 10:24 | -35.95459 | 147.44781 | 37266 ft | 482 kts | 50° |
| 2026-05-05 10:24 | -35.91414 | 147.51427 | 37272 ft | 482 kts | 50° |
| 2026-05-05 10:25 | -35.87362 | 147.58072 | 37269 ft | 483 kts | 50° |
| 2026-05-05 10:25 | -35.83314 | 147.64703 | 37269 ft | 483 kts | 50° |
| 2026-05-05 10:26 | -35.79269 | 147.71320 | 37268 ft | 483 kts | 50° |
| 2026-05-05 10:26 | -35.75217 | 147.77933 | 37272 ft | 483 kts | 50° |
| 2026-05-05 10:27 | -35.71157 | 147.84543 | 37272 ft | 483 kts | 50° |
| 2026-05-05 10:27 | -35.67112 | 147.91115 | 37270 ft | 483 kts | 49° |
| 2026-05-05 10:28 | -35.63037 | 147.97722 | 37271 ft | 483 kts | 49° |
| 2026-05-05 10:28 | -35.58965 | 148.04313 | 37274 ft | 483 kts | 49° |
| 2026-05-05 10:29 | -35.54890 | 148.10894 | 37274 ft | 483 kts | 49° |
| 2026-05-05 10:29 | -35.50817 | 148.17460 | 37271 ft | 483 kts | 49° |
| 2026-05-05 10:30 | -35.46743 | 148.24018 | 37276 ft | 483 kts | 49° |
| 2026-05-05 10:30 | -35.42669 | 148.30566 | 37272 ft | 482 kts | 49° |
| 2026-05-05 10:31 | -35.38618 | 148.37068 | 37276 ft | 482 kts | 49° |
| 2026-05-05 10:31 | -35.34541 | 148.43597 | 37276 ft | 482 kts | 49° |
| 2026-05-05 10:32 | -35.30461 | 148.50114 | 37270 ft | 482 kts | 49° |
| 2026-05-05 10:32 | -35.26379 | 148.56622 | 37269 ft | 481 kts | 49° |
| 2026-05-05 10:33 | -35.22411 | 148.62937 | 37267 ft | 481 kts | 49° |
| 2026-05-05 10:33 | -35.18314 | 148.69444 | 37263 ft | 481 kts | 48° |
| 2026-05-05 10:34 | -35.14228 | 148.75923 | 37264 ft | 481 kts | 48° |
| 2026-05-05 10:34 | -35.10136 | 148.82397 | 37088 ft | 481 kts | 48° |
| 2026-05-05 10:35 | -35.08093 | 148.85626 | 36822 ft | 478 kts | 48° |
| 2026-05-05 10:35 | -35.06063 | 148.88830 | 36572 ft | 475 kts | 48° |
| 2026-05-05 10:35 | -35.04075 | 148.91966 | 36306 ft | 472 kts | 48° |
| 2026-05-05 10:35 | -35.02066 | 148.95133 | 35979 ft | 469 kts | 48° |
| 2026-05-05 10:36 | -35.00069 | 148.98277 | 35577 ft | 469 kts | 48° |
| 2026-05-05 10:36 | -34.98066 | 149.01424 | 35081 ft | 469 kts | 48° |
| 2026-05-05 10:36 | -34.96404 | 149.04033 | 34639 ft | 470 kts | 49° |
| 2026-05-05 10:36 | -34.94391 | 149.07190 | 34032 ft | 471 kts | 49° |
| 2026-05-05 10:37 | -34.92361 | 149.10374 | 33387 ft | 472 kts | 49° |
| 2026-05-05 10:37 | -34.90319 | 149.13579 | 32764 ft | 472 kts | 49° |
| 2026-05-05 10:37 | -34.88294 | 149.16751 | 32156 ft | 473 kts | 49° |
| 2026-05-05 10:37 | -34.86290 | 149.19887 | 31551 ft | 473 kts | 49° |
| 2026-05-05 10:38 | -34.84505 | 149.22678 | 31020 ft | 474 kts | 49° |
| 2026-05-05 10:38 | -34.82140 | 149.26368 | 30319 ft | 475 kts | 49° |
| 2026-05-05 10:38 | -34.80412 | 149.29061 | 29756 ft | 475 kts | 49° |
| 2026-05-05 10:38 | -34.78374 | 149.32231 | 29109 ft | 474 kts | 49° |
| 2026-05-05 10:39 | -34.76336 | 149.35397 | 28481 ft | 473 kts | 49° |
| 2026-05-05 10:39 | -34.74303 | 149.38552 | 27878 ft | 471 kts | 49° |
| 2026-05-05 10:39 | -34.72283 | 149.41682 | 27293 ft | 469 kts | 49° |
| 2026-05-05 10:39 | -34.70269 | 149.44799 | 26729 ft | 466 kts | 49° |
| 2026-05-05 10:40 | -34.69060 | 149.46668 | 26394 ft | 465 kts | 49° |
| 2026-05-05 10:40 | -34.68387 | 149.47709 | 26212 ft | 464 kts | 50° |
| 2026-05-05 10:40 | -34.66396 | 149.50783 | 25681 ft | 461 kts | 50° |
| 2026-05-05 10:40 | -34.64541 | 149.53645 | 25190 ft | 458 kts | 50° |
| 2026-05-05 10:41 | -34.62571 | 149.56682 | 24657 ft | 456 kts | 50° |
| 2026-05-05 10:41 | -34.60642 | 149.59717 | 24420 ft | 447 kts | 53° |
| 2026-05-05 10:41 | -34.59238 | 149.63091 | 24405 ft | 452 kts | 73° |
| 2026-05-05 10:41 | -34.58854 | 149.66891 | 24429 ft | 454 kts | 89° |
| 2026-05-05 10:42 | -34.57952 | 149.74429 | 24419 ft | 451 kts | 71° |
| 2026-05-05 10:42 | -34.56806 | 149.78044 | 24408 ft | 450 kts | 65° |
| 2026-05-05 10:42 | -34.55446 | 149.81494 | 24426 ft | 450 kts | 61° |
| 2026-05-05 10:43 | -34.54148 | 149.84502 | 24424 ft | 449 kts | 60° |
| 2026-05-05 10:43 | -34.52471 | 149.88269 | 24424 ft | 449 kts | 60° |
| 2026-05-05 10:43 | -34.50984 | 149.91602 | 24423 ft | 449 kts | 60° |
| 2026-05-05 10:43 | -34.49497 | 149.94950 | 24417 ft | 449 kts | 60° |
| 2026-05-05 10:44 | -34.48017 | 149.98297 | 24419 ft | 449 kts | 60° |
| 2026-05-05 10:44 | -34.46530 | 150.01659 | 24420 ft | 449 kts | 60° |
| 2026-05-05 10:44 | -34.45053 | 150.04994 | 24419 ft | 449 kts | 60° |
| 2026-05-05 10:44 | -34.43561 | 150.08357 | 24412 ft | 449 kts | 60° |
| 2026-05-05 10:45 | -34.42064 | 150.11731 | 24399 ft | 448 kts | 60° |
| 2026-05-05 10:45 | -34.40588 | 150.15053 | 24394 ft | 448 kts | 60° |
| 2026-05-05 10:45 | -34.39080 | 150.18442 | 24403 ft | 448 kts | 60° |
| 2026-05-05 10:45 | -34.37598 | 150.21768 | 24397 ft | 447 kts | 59° |
| 2026-05-05 10:46 | -34.36199 | 150.24905 | 24394 ft | 447 kts | 59° |
| 2026-05-05 10:46 | -34.36133 | 150.25053 | 24402 ft | 447 kts | 59° |
| 2026-05-05 10:46 | -34.35507 | 150.26455 | 24397 ft | 447 kts | 59° |
| 2026-05-05 10:46 | -34.34532 | 150.28639 | 24330 ft | 442 kts | 59° |
| 2026-05-05 10:47 | -34.33070 | 150.31911 | 23661 ft | 444 kts | 59° |
| 2026-05-05 10:47 | -34.31574 | 150.35248 | 22628 ft | 452 kts | 60° |
| 2026-05-05 10:47 | -34.30063 | 150.38621 | 21986 ft | 450 kts | 60° |
| 2026-05-05 10:47 | -34.28577 | 150.41941 | 21459 ft | 445 kts | 60° |
| 2026-05-05 10:48 | -34.27107 | 150.45227 | 20928 ft | 442 kts | 60° |
| 2026-05-05 10:48 | -34.25654 | 150.48481 | 20387 ft | 438 kts | 60° |
| 2026-05-05 10:48 | -34.24207 | 150.51717 | 19869 ft | 435 kts | 60° |
| 2026-05-05 10:48 | -34.22764 | 150.54943 | 19337 ft | 432 kts | 60° |
| 2026-05-05 10:49 | -34.21334 | 150.58132 | 18830 ft | 429 kts | 60° |
| 2026-05-05 10:49 | -34.19918 | 150.61287 | 18295 ft | 426 kts | 60° |
| 2026-05-05 10:49 | -34.18588 | 150.64246 | 17395 ft | 421 kts | 60° |
| 2026-05-05 10:49 | -34.17197 | 150.67339 | 16369 ft | 414 kts | 60° |
| 2026-05-05 10:50 | -34.15857 | 150.70318 | 15464 ft | 404 kts | 61° |
| 2026-05-05 10:50 | -34.14529 | 150.73266 | 14738 ft | 392 kts | 61° |
| 2026-05-05 10:50 | -34.13235 | 150.76139 | 14130 ft | 378 kts | 61° |
| 2026-05-05 10:50 | -34.12014 | 150.78846 | 13400 ft | 368 kts | 61° |
| 2026-05-05 10:51 | -34.10943 | 150.81221 | 12717 ft | 360 kts | 61° |
| 2026-05-05 10:51 | -34.09752 | 150.83862 | 12012 ft | 357 kts | 62° |
| 2026-05-05 10:51 | -34.08559 | 150.86514 | 11175 ft | 357 kts | 62° |
| 2026-05-05 10:51 | -34.07374 | 150.89148 | 10434 ft | 349 kts | 62° |
| 2026-05-05 10:52 | -34.06209 | 150.91733 | 9651 ft | 342 kts | 62° |
| 2026-05-05 10:52 | -34.05078 | 150.94247 | 8935 ft | 334 kts | 61° |
| 2026-05-05 10:52 | -34.03983 | 150.96682 | 8294 ft | 324 kts | 59° |
| 2026-05-05 10:52 | -34.02566 | 150.98740 | 7640 ft | 316 kts | 36° |
| 2026-05-05 10:53 | -34.00634 | 150.99890 | 7010 ft | 306 kts | 12° |
| 2026-05-05 10:53 | -33.98552 | 151.00286 | 6412 ft | 298 kts | 4° |
| 2026-05-05 10:53 | -33.96665 | 151.00486 | 6042 ft | 286 kts | 3° |
| 2026-05-05 10:53 | -33.94709 | 151.00656 | 5972 ft | 275 kts | 2° |
| 2026-05-05 10:54 | -33.92828 | 151.00807 | 5702 ft | 274 kts | 3° |
| 2026-05-05 10:54 | -33.90947 | 151.00940 | 5444 ft | 269 kts | 3° |
| 2026-05-05 10:54 | -33.89084 | 151.01052 | 5156 ft | 267 kts | 3° |
| 2026-05-05 10:54 | -33.87228 | 151.01146 | 4849 ft | 266 kts | 2° |
| 2026-05-05 10:55 | -33.85362 | 151.01233 | 4438 ft | 264 kts | 2° |
| 2026-05-05 10:55 | -33.83557 | 151.01310 | 4098 ft | 255 kts | 2° |
| 2026-05-05 10:55 | -33.81813 | 151.01378 | 3760 ft | 247 kts | 2° |
| 2026-05-05 10:55 | -33.80109 | 151.01440 | 3425 ft | 240 kts | 2° |
| 2026-05-05 10:56 | -33.78462 | 151.01497 | 3102 ft | 234 kts | 2° |
| 2026-05-05 10:56 | -33.76867 | 151.01559 | 2985 ft | 225 kts | 5° |
| 2026-05-05 10:56 | -33.75373 | 151.01870 | 2965 ft | 217 kts | 29° |
| 2026-05-05 10:56 | -33.74278 | 151.03025 | 2986 ft | 205 kts | 66° |
| 2026-05-05 10:57 | -33.73802 | 151.04601 | 2995 ft | 198 kts | 79° |
| 2026-05-05 10:57 | -33.73511 | 151.06227 | 2995 ft | 198 kts | 82° |
| 2026-05-05 10:57 | -33.73259 | 151.07839 | 2983 ft | 192 kts | 82° |
| 2026-05-05 10:57 | -33.73068 | 151.09365 | 2979 ft | 174 kts | 94° |
| 2026-05-05 10:58 | -33.73294 | 151.10700 | 2961 ft | 159 kts | 127° |
| 2026-05-05 10:58 | -33.74054 | 151.11646 | 2991 ft | 157 kts | 153° |
| 2026-05-05 10:58 | -33.75096 | 151.12036 | 3000 ft | 157 kts | 169° |
| 2026-05-05 10:58 | -33.76196 | 151.12220 | 2993 ft | 157 kts | 172° |
| 2026-05-05 10:59 | -33.77285 | 151.12369 | 2995 ft | 157 kts | 172° |
| 2026-05-05 10:59 | -33.77420 | 151.12387 | 2992 ft | 157 kts | 172° |
| 2026-05-05 10:59 | -33.78060 | 151.12470 | 2993 ft | 157 kts | 172° |
| 2026-05-05 10:59 | -33.79142 | 151.12667 | 2976 ft | 157 kts | 156° |
| 2026-05-05 11:00 | -33.80124 | 151.13251 | 2974 ft | 158 kts | 154° |
| 2026-05-05 11:00 | -33.81134 | 151.13810 | 2657 ft | 162 kts | 160° |
| 2026-05-05 11:00 | -33.82219 | 151.14256 | 2277 ft | 168 kts | 164° |
| 2026-05-05 11:00 | -33.83360 | 151.14635 | 1939 ft | 170 kts | 167° |
| 2026-05-05 11:01 | -33.84495 | 151.14955 | 1732 ft | 188 kts | 168° |
| 2026-05-05 11:01 | -33.85808 | 151.15300 | 1468 ft | 194 kts | 168° |
| 2026-05-05 11:01 | -33.87135 | 151.15645 | 1208 ft | 194 kts | 168° |
| 2026-05-05 11:01 | -33.88483 | 151.15996 | 940 ft | 195 kts | 168° |
| 2026-05-05 11:02 | -33.89847 | 151.16432 | 922 ft | 219 kts | 160° |
| 2026-05-05 11:02 | -33.91324 | 151.16979 | 1575 ft | 213 kts | 166° |
| 2026-05-05 11:02 | -33.92731 | 151.17402 | 1960 ft | 206 kts | 167° |
| 2026-05-05 11:02 | -33.94138 | 151.17806 | 2151 ft | 205 kts | 167° |
| 2026-05-05 11:03 | -33.95531 | 151.18188 | 2348 ft | 205 kts | 168° |
| 2026-05-05 11:03 | -33.96925 | 151.18550 | 2529 ft | 202 kts | 168° |
| 2026-05-05 11:03 | -33.98288 | 151.18887 | 2666 ft | 198 kts | 169° |
| 2026-05-05 11:03 | -33.99188 | 151.19100 | 2744 ft | 199 kts | 169° |
| 2026-05-05 11:04 | -34.01008 | 151.19506 | 2921 ft | 199 kts | 170° |
| 2026-05-05 11:04 | -34.01917 | 151.19655 | 2928 ft | 199 kts | 182° |
| 2026-05-05 11:04 | -34.03216 | 151.19117 | 2948 ft | 202 kts | 219° |
| 2026-05-05 11:04 | -34.03977 | 151.17702 | 2980 ft | 208 kts | 256° |
| 2026-05-05 11:05 | -34.03658 | 151.15440 | 2987 ft | 216 kts | 302° |
| 2026-05-05 11:05 | -34.03048 | 151.14457 | 2996 ft | 217 kts | 309° |
| 2026-05-05 11:05 | -34.01689 | 151.12677 | 2986 ft | 217 kts | 314° |
| 2026-05-05 11:05 | -34.00934 | 151.11843 | 2971 ft | 218 kts | 327° |
| 2026-05-05 11:06 | -33.99644 | 151.11094 | 2981 ft | 219 kts | 340° |
| 2026-05-05 11:06 | -33.98190 | 151.10496 | 2983 ft | 219 kts | 342° |
| 2026-05-05 11:06 | -33.96838 | 151.09983 | 2980 ft | 219 kts | 342° |
| 2026-05-05 11:06 | -33.95362 | 151.09433 | 2984 ft | 219 kts | 342° |
| 2026-05-05 11:07 | -33.93908 | 151.08895 | 2982 ft | 219 kts | 343° |
| 2026-05-05 11:07 | -33.92456 | 151.08355 | 2980 ft | 219 kts | 343° |
| 2026-05-05 11:07 | -33.91020 | 151.07821 | 2976 ft | 219 kts | 343° |
| 2026-05-05 11:07 | -33.89562 | 151.07280 | 2981 ft | 219 kts | 342° |
| 2026-05-05 11:08 | -33.88107 | 151.06740 | 2983 ft | 219 kts | 343° |
| 2026-05-05 11:08 | -33.86650 | 151.06197 | 2984 ft | 219 kts | 343° |
| 2026-05-05 11:08 | -33.85197 | 151.05653 | 2981 ft | 216 kts | 342° |
| 2026-05-05 11:08 | -33.83803 | 151.05133 | 2953 ft | 204 kts | 345° |
| 2026-05-05 11:09 | -33.82411 | 151.04923 | 2942 ft | 203 kts | 13° |
| 2026-05-05 11:09 | -33.81169 | 151.05639 | 2664 ft | 201 kts | 51° |
| 2026-05-05 11:09 | -33.80547 | 151.07118 | 2296 ft | 199 kts | 83° |
| 2026-05-05 11:09 | -33.80413 | 151.08746 | 2023 ft | 188 kts | 91° |
| 2026-05-05 11:10 | -33.80377 | 151.10220 | 1969 ft | 167 kts | 92° |
| 2026-05-05 11:10 | -33.80484 | 151.11578 | 1979 ft | 160 kts | 115° |
| 2026-05-05 11:10 | -33.80988 | 151.12765 | 2005 ft | 157 kts | 131° |
| 2026-05-05 11:10 | -33.81747 | 151.13704 | 2022 ft | 155 kts | 147° |
| 2026-05-05 11:11 | -33.82039 | 151.13935 | 2018 ft | 155 kts | 152° |